Bow Spring — LADW6 — position and weather

sailwx.info

Track history (hours):
 
Tides and Currents Weather Stations Pressure Air Temp Water Temp Dewpoint Dewpoint Depression Visibility Wind Speed Wind Dir Waves Ship Positions

Bow Spring

Last reported at 2018-Jan-19 08:23 UTC. Time now 2018-Jan-24 04:06 UTC.
Position N 34°32' E 130°17'.

Length 183 m; draft 11.2 m.

Type: Tanker. MMSI: 257514000.

Date/timePositionNaut miles runAvg speedWind from/ knotsBaromVisibWave heightAir tempDewpointWater temp
2018-Jan-19 08:23N 34°32' E 130°17'513.8
2018-Jan-19 08:00N 34°28' E 130°21'714.0
2018-Jan-19 07:30N 34°23' E 130°26'714.2
2018-Jan-19 07:00N 34°17' E 130°32'714.4
2018-Jan-19 06:30N 34°12' E 130°37'714.4
2018-Jan-19 06:00N 34°06' E 130°43'714.4
2018-Jan-19 05:30N 34°02' E 130°50'5 9.9
2018-Jan-19 05:01N 33°57' E 130°52'4 7.6
2018-Jan-19 04:31N 33°55' E 130°55'611.9
2018-Jan-19 04:01N 33°59' E 131°01'4 8.8
2018-Jan-19 03:30N 33°56' E 131°05'4 8.3
2018-Jan-19 03:00N 33°53' E 131°09'4 8.5
2018-Jan-19 02:31N 33°52' E 131°14'510.7
2018-Jan-19 02:00N 33°50' E 131°20'611.3
2018-Jan-19 01:31N 33°49' E 131°27'611.4
2018-Jan-19 01:00N 33°48' E 131°33'611.8
2018-Jan-19 00:30N 33°47' E 131°40'612.0
2018-Jan-19 00:01N 33°43' E 131°46'612.5
2018-Jan-18 23:31N 33°39' E 131°52'612.5
2018-Jan-18 23:00N 33°33' E 131°54'612.6
2018-Jan-18 22:30N 33°27' E 131°56'815.4
2018-Jan-18 22:00N 33°20' E 131°60'1115.9
2018-Jan-18 21:17N 33°10' E 132°07'14110.5
2018-Jan-18 07:53N 33°45' E 134°51'714.9
2018-Jan-18 07:27N 33°51' E 134°53'715.0
2018-Jan-18 07:01N 33°57' E 134°54'714.9
2018-Jan-18 06:31N 34°05' E 134°56'714.9
2018-Jan-18 06:00N 34°12' E 134°57'713.7
2018-Jan-18 05:31N 34°19' E 134°59'815.5
2018-Jan-18 05:00N 34°25' E 135°04'815.8
2018-Jan-18 04:30N 34°31' E 135°11'714.2
2018-Jan-18 04:00N 34°37' E 135°16'3 5.8
2018-Jan-18 03:30N 34°39' E 135°18'0 0.1
2018-Jan-18 03:00N 34°39' E 135°18'0 0.1
2018-Jan-18 02:30N 34°39' E 135°18'0 0.0
2018-Jan-18 02:00N 34°39' E 135°18'0 0.1
2018-Jan-18 01:30N 34°39' E 135°18'0 0.1
2018-Jan-18 01:00N 34°39' E 135°18'0 0.0
2018-Jan-17 23:57N 34°39' E 135°18'  
2018-Jan-11 22:54N 24°53' E 123°35'512.6
2018-Jan-11 22:30N 24°49' E 123°32'712.9
2018-Jan-11 22:00N 24°43' E 123°29'612.6
2018-Jan-11 21:30N 24°38' E 123°26'612.6
2018-Jan-11 21:00N 24°32' E 123°23'612.4
2018-Jan-11 20:30N 24°27' E 123°19'612.1
2018-Jan-11 20:00N 24°21' E 123°16'611.8
2018-Jan-11 19:30N 24°17' E 123°12'612.2
2018-Jan-11 19:00N 24°12' E 123°08'612.1
2018-Jan-11 18:30N 24°07' E 123°04'612.6
2018-Jan-11 18:00N 24°02' E 122°60'612.1
2018-Jan-11 17:30N 23°58' E 122°55'612.0
2018-Jan-11 17:00N 23°53' E 122°51'611.9
2018-Jan-11 16:30N 23°48' E 122°47'611.5
2018-Jan-11 15:58N 23°43' E 122°43'511.4
2018-Jan-11 15:30N 23°39' E 122°39'  
Track history (hours):
 
Tides and Currents Weather Stations Pressure Air Temp Water Temp Dewpoint Dewpoint Depression Visibility Wind Speed Wind Dir Waves Ship Positions

Bow Spring

Last reported at 2018-Jan-19 08:23 UTC. Time now 2018-Jan-24 04:06 UTC.
Position N 34°32' E 130°17'.

Length 183 m; draft 11.2 m.

Type: Tanker. MMSI: 257514000.

Date/timePositionNaut miles runAvg speedWind from/ knotsBaromVisibWave heightAir tempDewpointWater temp
2018-Jan-19 08:23N 34°32' E 130°17'513.8
2018-Jan-19 08:00N 34°28' E 130°21'714.0
2018-Jan-19 07:30N 34°23' E 130°26'714.2
2018-Jan-19 07:00N 34°17' E 130°32'714.4
2018-Jan-19 06:30N 34°12' E 130°37'714.4
2018-Jan-19 06:00N 34°06' E 130°43'714.4
2018-Jan-19 05:30N 34°02' E 130°50'5 9.9
2018-Jan-19 05:01N 33°57' E 130°52'4 7.6
2018-Jan-19 04:31N 33°55' E 130°55'611.9
2018-Jan-19 04:01N 33°59' E 131°01'4 8.8
2018-Jan-19 03:30N 33°56' E 131°05'4 8.3
2018-Jan-19 03:00N 33°53' E 131°09'4 8.5
2018-Jan-19 02:31N 33°52' E 131°14'510.7
2018-Jan-19 02:00N 33°50' E 131°20'611.3
2018-Jan-19 01:31N 33°49' E 131°27'611.4
2018-Jan-19 01:00N 33°48' E 131°33'611.8
2018-Jan-19 00:30N 33°47' E 131°40'612.0
2018-Jan-19 00:01N 33°43' E 131°46'612.5
2018-Jan-18 23:31N 33°39' E 131°52'612.5
2018-Jan-18 23:00N 33°33' E 131°54'612.6
2018-Jan-18 22:30N 33°27' E 131°56'815.4
2018-Jan-18 22:00N 33°20' E 131°60'1115.9
2018-Jan-18 21:17N 33°10' E 132°07'14110.5
2018-Jan-18 07:53N 33°45' E 134°51'714.9
2018-Jan-18 07:27N 33°51' E 134°53'715.0
2018-Jan-18 07:01N 33°57' E 134°54'714.9
2018-Jan-18 06:31N 34°05' E 134°56'714.9
2018-Jan-18 06:00N 34°12' E 134°57'713.7
2018-Jan-18 05:31N 34°19' E 134°59'815.5
2018-Jan-18 05:00N 34°25' E 135°04'815.8
2018-Jan-18 04:30N 34°31' E 135°11'714.2
2018-Jan-18 04:00N 34°37' E 135°16'3 5.8
2018-Jan-18 03:30N 34°39' E 135°18'0 0.1
2018-Jan-18 03:00N 34°39' E 135°18'0 0.1
2018-Jan-18 02:30N 34°39' E 135°18'0 0.0
2018-Jan-18 02:00N 34°39' E 135°18'0 0.1
2018-Jan-18 01:30N 34°39' E 135°18'0 0.1
2018-Jan-18 01:00N 34°39' E 135°18'0 0.0
2018-Jan-17 23:57N 34°39' E 135°18'  
2018-Jan-11 22:54N 24°53' E 123°35'512.6
2018-Jan-11 22:30N 24°49' E 123°32'712.9
2018-Jan-11 22:00N 24°43' E 123°29'612.6
2018-Jan-11 21:30N 24°38' E 123°26'612.6
2018-Jan-11 21:00N 24°32' E 123°23'612.4
2018-Jan-11 20:30N 24°27' E 123°19'612.1
2018-Jan-11 20:00N 24°21' E 123°16'611.8
2018-Jan-11 19:30N 24°17' E 123°12'612.2
2018-Jan-11 19:00N 24°12' E 123°08'612.1
2018-Jan-11 18:30N 24°07' E 123°04'612.6
2018-Jan-11 18:00N 24°02' E 122°60'612.1
2018-Jan-11 17:30N 23°58' E 122°55'612.0
2018-Jan-11 17:00N 23°53' E 122°51'611.9
2018-Jan-11 16:30N 23°48' E 122°47'611.5
2018-Jan-11 15:58N 23°43' E 122°43'511.4
2018-Jan-11 15:30N 23°39' E 122°39'  

Dump ship's entire track history